Tropical Cyclones
[Index]
Main Index Home Page Stock Weather Photos Extreme Storms Discussion Storm News and Storm Chasing Reports Tropical Cyclones / Hurricanes / Typhoons Weather Data and Links Wild Fires / Bushfires Weather Observation Techniques Weather Picture Catalogue Tornado Pictures and Reports Stock Video Footage and DVDs for sale
Season 1964-1965 Tropical Cyclone JUDY1 Track Map
Season 1964-1965 Summaries: [BoM-AU] [JTWC-AU] [JTWC-SIO] [JTWC-SPAC] [JTWC-SH]
<<- Previous TC | JTWC 1964-1965 Season | Next TC ->>

click for intensity scale information  Lat/long Grid: Show Hide

 Date Labels: Show Hide

Joint Typhoon Warning Centre Cyclone Data

Name: JUDY1
Number: 558 / 6521

26 Jan 1965 00:00 UTC to 04 Feb 1965 18:00 UTC

    date/time    lat    long     hPa   cat  kts
1965-01-26 00   11.8   133.0                              
1965-01-26 06   13.0   133.4                              
1965-01-26 12   13.4   134.2                              
1965-01-26 18   12.9   135.3                              
1965-01-27 00   12.7   136.4                              
1965-01-27 06   12.9   137.2                              
1965-01-27 12   13.3   138.0                              
1965-01-27 18   13.8   138.7                              
1965-01-28 00   14.4   139.4                              
1965-01-28 06   15.1   140.1                              
1965-01-28 12   15.7   140.7                              
1965-01-28 18   16.4   141.4                              
1965-01-29 00   17.1   142.0                              
1965-01-29 06   17.7   142.8                              
1965-01-29 12   18.0   143.6                              
1965-01-29 18   17.9   144.5                              
1965-01-30 00   17.7   145.5                              
1965-01-30 06   17.3   146.5                              
1965-01-30 12   17.1   147.6                              
1965-01-30 18   16.9   149.9                              
1965-01-31 00   17.2   152.0                              
1965-01-31 06   18.0   153.2                              
1965-01-31 12   18.8   154.6                              
1965-01-31 18   19.8   156.4                              
1965-02-01 00   20.6   158.1                              
1965-02-01 06   21.1   159.4                              
1965-02-01 12   21.7   160.2                              
1965-02-01 18   22.6   160.8                              
1965-02-02 00   23.4   160.8                              
1965-02-02 06   24.2   160.4                              
1965-02-02 12   24.9   159.9                              
1965-02-02 18   25.6   159.4                              
1965-02-03 00   26.3   158.8                              
1965-02-03 06   26.9   158.2                              
1965-02-03 12   27.5   157.6                              
1965-02-03 18   28.4   157.1                              
1965-02-04 00   29.2   157.3                              
1965-02-04 06   29.8   158.0                              
1965-02-04 12   30.2   158.8                              
1965-02-04 18   30.4   159.6                              
Winds are 1-min average.

Tropical cyclone tracks developed by Michael Bath using data from the Joint Typhoon Warning Centre Best Tracks and Google Maps.


[Australian Severe Weather index] [Copyright Notice] [Email Contacts] [Search This Site] [Privacy Policy]
Document: tropical_cyclone_judy1.htm Updated: 18 September 2016